sensor_id;sensor_type;location;lat;lon;timestamp;P1;durP1;ratioP1;P2;durP2;ratioP2
83306;SDS011;73223;48.584;13.460;2024-03-08T00:02:00;25.10;;;11.47;;
83306;SDS011;73223;48.584;13.460;2024-03-08T00:04:25;22.15;;;10.27;;
83306;SDS011;73223;48.584;13.460;2024-03-08T00:06:50;23.20;;;8.43;;
83306;SDS011;73223;48.584;13.460;2024-03-08T00:09:16;22.77;;;8.77;;
83306;SDS011;73223;48.584;13.460;2024-03-08T00:11:41;25.55;;;9.57;;
83306;SDS011;73223;48.584;13.460;2024-03-08T00:14:06;22.33;;;9.77;;
83306;SDS011;73223;48.584;13.460;2024-03-08T00:16:32;36.03;;;14.50;;
83306;SDS011;73223;48.584;13.460;2024-03-08T00:18:59;30.30;;;13.43;;
83306;SDS011;73223;48.584;13.460;2024-03-08T00:21:24;29.33;;;12.98;;
83306;SDS011;73223;48.584;13.460;2024-03-08T00:23:49;22.83;;;10.20;;
83306;SDS011;73223;48.584;13.460;2024-03-08T00:26:15;22.80;;;9.63;;
83306;SDS011;73223;48.584;13.460;2024-03-08T00:28:40;24.48;;;9.40;;
83306;SDS011;73223;48.584;13.460;2024-03-08T00:31:06;19.73;;;8.40;;
83306;SDS011;73223;48.584;13.460;2024-03-08T00:33:32;24.23;;;10.10;;
83306;SDS011;73223;48.584;13.460;2024-03-08T00:35:57;33.92;;;12.45;;
83306;SDS011;73223;48.584;13.460;2024-03-08T00:38:22;41.40;;;14.82;;
83306;SDS011;73223;48.584;13.460;2024-03-08T00:40:48;22.37;;;9.77;;
83306;SDS011;73223;48.584;13.460;2024-03-08T00:43:13;20.92;;;9.43;;
83306;SDS011;73223;48.584;13.460;2024-03-08T00:45:39;31.67;;;13.18;;
83306;SDS011;73223;48.584;13.460;2024-03-08T00:48:07;30.75;;;12.13;;
83306;SDS011;73223;48.584;13.460;2024-03-08T00:50:33;16.40;;;7.68;;
83306;SDS011;73223;48.584;13.460;2024-03-08T00:52:58;24.20;;;9.23;;
83306;SDS011;73223;48.584;13.460;2024-03-08T00:55:24;21.30;;;8.63;;
83306;SDS011;73223;48.584;13.460;2024-03-08T00:57:50;17.50;;;8.15;;
83306;SDS011;73223;48.584;13.460;2024-03-08T01:00:15;28.98;;;12.07;;
83306;SDS011;73223;48.584;13.460;2024-03-08T01:02:41;21.08;;;9.15;;
83306;SDS011;73223;48.584;13.460;2024-03-08T01:07:36;19.25;;;8.15;;
83306;SDS011;73223;48.584;13.460;2024-03-08T01:10:02;18.38;;;8.52;;
83306;SDS011;73223;48.584;13.460;2024-03-08T01:12:28;19.52;;;8.40;;
83306;SDS011;73223;48.584;13.460;2024-03-08T01:14:54;19.02;;;8.57;;
83306;SDS011;73223;48.584;13.460;2024-03-08T01:17:20;17.17;;;7.35;;
83306;SDS011;73223;48.584;13.460;2024-03-08T01:19:45;24.02;;;9.15;;
83306;SDS011;73223;48.584;13.460;2024-03-08T01:22:11;19.77;;;8.57;;
83306;SDS011;73223;48.584;13.460;2024-03-08T01:24:36;20.15;;;8.55;;
83306;SDS011;73223;48.584;13.460;2024-03-08T01:27:02;23.85;;;8.77;;
83306;SDS011;73223;48.584;13.460;2024-03-08T01:29:27;19.58;;;7.43;;
83306;SDS011;73223;48.584;13.460;2024-03-08T01:31:54;25.02;;;9.60;;
83306;SDS011;73223;48.584;13.460;2024-03-08T01:34:20;26.33;;;9.13;;
83306;SDS011;73223;48.584;13.460;2024-03-08T01:36:45;20.27;;;8.63;;
83306;SDS011;73223;48.584;13.460;2024-03-08T01:39:11;23.45;;;8.82;;
83306;SDS011;73223;48.584;13.460;2024-03-08T01:41:36;21.27;;;8.67;;
83306;SDS011;73223;48.584;13.460;2024-03-08T01:44:02;20.40;;;8.73;;
83306;SDS011;73223;48.584;13.460;2024-03-08T01:46:28;19.67;;;8.10;;
83306;SDS011;73223;48.584;13.460;2024-03-08T01:48:54;18.90;;;8.13;;
83306;SDS011;73223;48.584;13.460;2024-03-08T01:51:20;17.88;;;7.90;;
83306;SDS011;73223;48.584;13.460;2024-03-08T01:53:46;20.90;;;9.15;;
83306;SDS011;73223;48.584;13.460;2024-03-08T01:56:12;19.17;;;9.05;;
83306;SDS011;73223;48.584;13.460;2024-03-08T01:58:38;22.25;;;9.00;;
83306;SDS011;73223;48.584;13.460;2024-03-08T02:01:08;20.98;;;9.18;;
83306;SDS011;73223;48.584;13.460;2024-03-08T02:03:35;23.27;;;8.50;;
83306;SDS011;73223;48.584;13.460;2024-03-08T02:06:00;22.52;;;8.95;;
83306;SDS011;73223;48.584;13.460;2024-03-08T02:08:25;22.98;;;8.38;;
83306;SDS011;73223;48.584;13.460;2024-03-08T02:10:51;18.70;;;8.52;;
83306;SDS011;73223;48.584;13.460;2024-03-08T02:13:16;21.15;;;8.65;;
83306;SDS011;73223;48.584;13.460;2024-03-08T02:15:55;19.33;;;8.55;;
83306;SDS011;73223;48.584;13.460;2024-03-08T02:18:22;20.42;;;8.23;;
83306;SDS011;73223;48.584;13.460;2024-03-08T02:20:51;21.80;;;8.27;;
83306;SDS011;73223;48.584;13.460;2024-03-08T02:23:18;25.38;;;9.00;;
83306;SDS011;73223;48.584;13.460;2024-03-08T02:25:44;19.13;;;8.77;;
83306;SDS011;73223;48.584;13.460;2024-03-08T02:28:12;19.17;;;8.50;;
83306;SDS011;73223;48.584;13.460;2024-03-08T02:30:38;19.58;;;8.75;;
83306;SDS011;73223;48.584;13.460;2024-03-08T02:33:04;20.05;;;8.95;;
83306;SDS011;73223;48.584;13.460;2024-03-08T02:35:30;21.92;;;8.38;;
83306;SDS011;73223;48.584;13.460;2024-03-08T02:37:56;22.45;;;8.52;;
83306;SDS011;73223;48.584;13.460;2024-03-08T02:40:21;19.33;;;8.30;;
83306;SDS011;73223;48.584;13.460;2024-03-08T02:42:47;22.97;;;9.47;;
83306;SDS011;73223;48.584;13.460;2024-03-08T02:45:12;22.65;;;9.13;;
83306;SDS011;73223;48.584;13.460;2024-03-08T02:47:38;22.10;;;8.50;;
83306;SDS011;73223;48.584;13.460;2024-03-08T02:50:04;19.17;;;8.50;;
83306;SDS011;73223;48.584;13.460;2024-03-08T02:52:32;19.70;;;8.80;;
83306;SDS011;73223;48.584;13.460;2024-03-08T02:54:58;19.38;;;8.00;;
83306;SDS011;73223;48.584;13.460;2024-03-08T02:57:23;18.27;;;8.13;;
83306;SDS011;73223;48.584;13.460;2024-03-08T02:59:49;19.90;;;7.75;;
83306;SDS011;73223;48.584;13.460;2024-03-08T03:02:15;20.90;;;8.10;;
83306;SDS011;73223;48.584;13.460;2024-03-08T03:04:41;21.70;;;8.98;;
83306;SDS011;73223;48.584;13.460;2024-03-08T03:07:06;22.63;;;7.78;;
83306;SDS011;73223;48.584;13.460;2024-03-08T03:09:32;22.80;;;8.52;;
83306;SDS011;73223;48.584;13.460;2024-03-08T03:11:58;21.75;;;8.68;;
83306;SDS011;73223;48.584;13.460;2024-03-08T03:14:23;17.80;;;8.02;;
83306;SDS011;73223;48.584;13.460;2024-03-08T03:16:49;20.17;;;7.55;;
83306;SDS011;73223;48.584;13.460;2024-03-08T03:19:15;18.30;;;7.55;;
83306;SDS011;73223;48.584;13.460;2024-03-08T03:21:40;21.42;;;7.68;;
83306;SDS011;73223;48.584;13.460;2024-03-08T03:24:08;21.40;;;8.02;;
83306;SDS011;73223;48.584;13.460;2024-03-08T03:26:35;19.23;;;7.45;;
83306;SDS011;73223;48.584;13.460;2024-03-08T03:29:03;24.60;;;8.77;;
83306;SDS011;73223;48.584;13.460;2024-03-08T03:31:30;20.90;;;7.85;;
83306;SDS011;73223;48.584;13.460;2024-03-08T03:33:56;20.80;;;7.78;;
83306;SDS011;73223;48.584;13.460;2024-03-08T03:36:26;16.45;;;7.80;;
83306;SDS011;73223;48.584;13.460;2024-03-08T03:38:53;22.30;;;9.50;;
83306;SDS011;73223;48.584;13.460;2024-03-08T03:41:29;19.95;;;8.95;;
83306;SDS011;73223;48.584;13.460;2024-03-08T03:43:55;18.48;;;7.32;;
83306;SDS011;73223;48.584;13.460;2024-03-08T03:46:20;18.92;;;8.07;;
83306;SDS011;73223;48.584;13.460;2024-03-08T03:48:45;22.27;;;8.88;;
83306;SDS011;73223;48.584;13.460;2024-03-08T03:51:11;20.17;;;7.75;;
83306;SDS011;73223;48.584;13.460;2024-03-08T03:53:37;25.95;;;8.50;;
83306;SDS011;73223;48.584;13.460;2024-03-08T03:56:02;21.75;;;8.43;;
83306;SDS011;73223;48.584;13.460;2024-03-08T03:58:40;25.25;;;8.35;;
83306;SDS011;73223;48.584;13.460;2024-03-08T04:01:06;31.23;;;10.82;;
83306;SDS011;73223;48.584;13.460;2024-03-08T04:03:31;20.75;;;8.38;;
83306;SDS011;73223;48.584;13.460;2024-03-08T04:05:56;22.33;;;8.43;;
83306;SDS011;73223;48.584;13.460;2024-03-08T04:08:22;17.10;;;7.38;;
83306;SDS011;73223;48.584;13.460;2024-03-08T04:10:48;17.15;;;7.45;;
83306;SDS011;73223;48.584;13.460;2024-03-08T04:13:14;20.50;;;8.55;;
83306;SDS011;73223;48.584;13.460;2024-03-08T04:15:40;20.40;;;8.77;;
83306;SDS011;73223;48.584;13.460;2024-03-08T04:18:06;20.33;;;8.55;;
83306;SDS011;73223;48.584;13.460;2024-03-08T04:20:31;23.52;;;7.75;;
83306;SDS011;73223;48.584;13.460;2024-03-08T04:22:57;23.85;;;8.88;;
83306;SDS011;73223;48.584;13.460;2024-03-08T04:25:22;20.02;;;7.85;;
83306;SDS011;73223;48.584;13.460;2024-03-08T04:27:48;17.35;;;7.78;;
83306;SDS011;73223;48.584;13.460;2024-03-08T04:30:14;21.00;;;8.40;;
83306;SDS011;73223;48.584;13.460;2024-03-08T04:32:39;21.00;;;8.68;;
83306;SDS011;73223;48.584;13.460;2024-03-08T04:35:06;22.45;;;8.23;;
83306;SDS011;73223;48.584;13.460;2024-03-08T04:37:31;22.15;;;9.10;;
83306;SDS011;73223;48.584;13.460;2024-03-08T04:39:57;22.90;;;8.77;;
83306;SDS011;73223;48.584;13.460;2024-03-08T04:42:23;22.10;;;8.38;;
83306;SDS011;73223;48.584;13.460;2024-03-08T04:44:50;24.95;;;8.57;;
83306;SDS011;73223;48.584;13.460;2024-03-08T04:47:15;21.08;;;8.65;;
83306;SDS011;73223;48.584;13.460;2024-03-08T04:49:42;20.88;;;6.97;;
83306;SDS011;73223;48.584;13.460;2024-03-08T04:52:08;21.58;;;9.50;;
83306;SDS011;73223;48.584;13.460;2024-03-08T04:54:33;22.98;;;10.05;;
83306;SDS011;73223;48.584;13.460;2024-03-08T04:56:59;22.77;;;8.70;;
83306;SDS011;73223;48.584;13.460;2024-03-08T04:59:25;23.85;;;8.77;;
83306;SDS011;73223;48.584;13.460;2024-03-08T05:01:51;22.42;;;8.65;;
83306;SDS011;73223;48.584;13.460;2024-03-08T05:04:16;21.70;;;8.00;;
83306;SDS011;73223;48.584;13.460;2024-03-08T05:06:42;23.03;;;7.90;;
83306;SDS011;73223;48.584;13.460;2024-03-08T05:09:07;22.13;;;7.97;;
83306;SDS011;73223;48.584;13.460;2024-03-08T05:11:39;20.40;;;8.48;;
83306;SDS011;73223;48.584;13.460;2024-03-08T05:14:05;25.58;;;9.52;;
83306;SDS011;73223;48.584;13.460;2024-03-08T05:16:30;24.73;;;8.98;;
83306;SDS011;73223;48.584;13.460;2024-03-08T05:18:55;21.80;;;8.57;;
83306;SDS011;73223;48.584;13.460;2024-03-08T05:21:21;25.13;;;9.35;;
83306;SDS011;73223;48.584;13.460;2024-03-08T05:23:47;20.55;;;8.30;;
83306;SDS011;73223;48.584;13.460;2024-03-08T05:26:12;24.08;;;9.27;;
83306;SDS011;73223;48.584;13.460;2024-03-08T05:28:39;25.58;;;8.52;;
83306;SDS011;73223;48.584;13.460;2024-03-08T05:31:04;20.52;;;8.32;;
83306;SDS011;73223;48.584;13.460;2024-03-08T05:33:30;21.75;;;8.38;;
83306;SDS011;73223;48.584;13.460;2024-03-08T05:35:55;28.02;;;9.25;;
83306;SDS011;73223;48.584;13.460;2024-03-08T05:38:20;26.05;;;8.68;;
83306;SDS011;73223;48.584;13.460;2024-03-08T05:40:46;21.30;;;9.10;;
83306;SDS011;73223;48.584;13.460;2024-03-08T05:43:11;22.27;;;8.90;;
83306;SDS011;73223;48.584;13.460;2024-03-08T05:48:04;25.40;;;9.13;;
83306;SDS011;73223;48.584;13.460;2024-03-08T05:50:30;21.70;;;8.23;;
83306;SDS011;73223;48.584;13.460;2024-03-08T05:52:55;23.67;;;9.07;;
83306;SDS011;73223;48.584;13.460;2024-03-08T05:55:20;24.37;;;10.03;;
83306;SDS011;73223;48.584;13.460;2024-03-08T05:57:47;20.77;;;8.57;;
83306;SDS011;73223;48.584;13.460;2024-03-08T06:00:13;24.10;;;9.27;;
83306;SDS011;73223;48.584;13.460;2024-03-08T06:02:40;22.70;;;8.90;;
83306;SDS011;73223;48.584;13.460;2024-03-08T06:05:09;24.40;;;9.13;;
83306;SDS011;73223;48.584;13.460;2024-03-08T06:07:36;21.80;;;9.75;;
83306;SDS011;73223;48.584;13.460;2024-03-08T06:10:01;23.48;;;9.77;;
83306;SDS011;73223;48.584;13.460;2024-03-08T06:12:27;23.00;;;8.35;;
83306;SDS011;73223;48.584;13.460;2024-03-08T06:14:57;23.58;;;9.52;;
83306;SDS011;73223;48.584;13.460;2024-03-08T06:17:22;25.33;;;8.40;;
83306;SDS011;73223;48.584;13.460;2024-03-08T06:19:50;23.33;;;8.38;;
83306;SDS011;73223;48.584;13.460;2024-03-08T06:22:16;24.65;;;10.15;;
83306;SDS011;73223;48.584;13.460;2024-03-08T06:27:10;23.52;;;8.77;;
83306;SDS011;73223;48.584;13.460;2024-03-08T06:29:35;34.73;;;9.90;;
83306;SDS011;73223;48.584;13.460;2024-03-08T06:32:00;25.00;;;9.03;;
83306;SDS011;73223;48.584;13.460;2024-03-08T06:34:25;27.20;;;9.83;;
83306;SDS011;73223;48.584;13.460;2024-03-08T06:36:51;26.37;;;9.43;;
83306;SDS011;73223;48.584;13.460;2024-03-08T06:39:17;23.75;;;8.85;;
83306;SDS011;73223;48.584;13.460;2024-03-08T06:41:42;22.95;;;9.30;;
83306;SDS011;73223;48.584;13.460;2024-03-08T06:44:09;25.08;;;9.98;;
83306;SDS011;73223;48.584;13.460;2024-03-08T06:46:35;27.38;;;10.88;;
83306;SDS011;73223;48.584;13.460;2024-03-08T06:49:00;30.85;;;10.20;;
83306;SDS011;73223;48.584;13.460;2024-03-08T06:51:26;24.88;;;9.00;;
83306;SDS011;73223;48.584;13.460;2024-03-08T06:53:51;25.43;;;9.67;;
83306;SDS011;73223;48.584;13.460;2024-03-08T06:56:18;28.40;;;10.30;;
83306;SDS011;73223;48.584;13.460;2024-03-08T06:58:44;31.17;;;9.55;;
83306;SDS011;73223;48.584;13.460;2024-03-08T07:01:10;24.48;;;9.40;;
83306;SDS011;73223;48.584;13.460;2024-03-08T07:03:38;24.73;;;9.68;;
83306;SDS011;73223;48.584;13.460;2024-03-08T07:06:09;24.17;;;10.20;;
83306;SDS011;73223;48.584;13.460;2024-03-08T07:08:34;21.17;;;9.70;;
83306;SDS011;73223;48.584;13.460;2024-03-08T07:10:59;28.00;;;9.90;;
83306;SDS011;73223;48.584;13.460;2024-03-08T07:13:25;25.10;;;9.63;;
83306;SDS011;73223;48.584;13.460;2024-03-08T07:15:50;19.83;;;8.57;;
83306;SDS011;73223;48.584;13.460;2024-03-08T07:18:17;25.35;;;9.27;;
83306;SDS011;73223;48.584;13.460;2024-03-08T07:20:42;25.87;;;9.90;;
83306;SDS011;73223;48.584;13.460;2024-03-08T07:23:08;22.13;;;9.50;;
83306;SDS011;73223;48.584;13.460;2024-03-08T07:25:34;22.13;;;8.85;;
83306;SDS011;73223;48.584;13.460;2024-03-08T07:28:00;20.80;;;8.80;;
83306;SDS011;73223;48.584;13.460;2024-03-08T07:30:26;22.75;;;9.05;;
83306;SDS011;73223;48.584;13.460;2024-03-08T07:33:10;22.98;;;8.45;;
83306;SDS011;73223;48.584;13.460;2024-03-08T07:35:39;25.20;;;8.90;;
83306;SDS011;73223;48.584;13.460;2024-03-08T07:38:08;22.30;;;9.48;;
83306;SDS011;73223;48.584;13.460;2024-03-08T07:40:35;18.77;;;8.57;;
83306;SDS011;73223;48.584;13.460;2024-03-08T07:43:04;22.23;;;9.50;;
83306;SDS011;73223;48.584;13.460;2024-03-08T07:45:29;20.85;;;9.23;;
83306;SDS011;73223;48.584;13.460;2024-03-08T07:47:55;23.70;;;8.98;;
83306;SDS011;73223;48.584;13.460;2024-03-08T07:50:21;18.10;;;7.43;;
83306;SDS011;73223;48.584;13.460;2024-03-08T07:52:47;23.77;;;8.98;;
83306;SDS011;73223;48.584;13.460;2024-03-08T07:55:13;22.40;;;8.35;;
83306;SDS011;73223;48.584;13.460;2024-03-08T07:57:38;20.63;;;8.52;;
83306;SDS011;73223;48.584;13.460;2024-03-08T08:00:04;19.33;;;7.73;;
83306;SDS011;73223;48.584;13.460;2024-03-08T08:02:33;19.08;;;8.07;;
83306;SDS011;73223;48.584;13.460;2024-03-08T08:04:59;22.85;;;8.85;;
83306;SDS011;73223;48.584;13.460;2024-03-08T08:07:24;18.70;;;8.32;;
83306;SDS011;73223;48.584;13.460;2024-03-08T08:09:49;23.40;;;8.47;;
83306;SDS011;73223;48.584;13.460;2024-03-08T08:12:15;18.37;;;7.97;;
83306;SDS011;73223;48.584;13.460;2024-03-08T08:14:41;19.05;;;7.55;;
83306;SDS011;73223;48.584;13.460;2024-03-08T08:17:06;17.92;;;6.65;;
83306;SDS011;73223;48.584;13.460;2024-03-08T08:22:00;18.70;;;8.07;;
83306;SDS011;73223;48.584;13.460;2024-03-08T08:24:26;35.90;;;16.35;;
83306;SDS011;73223;48.584;13.460;2024-03-08T08:26:52;19.27;;;8.07;;
83306;SDS011;73223;48.584;13.460;2024-03-08T08:29:17;24.33;;;13.73;;
83306;SDS011;73223;48.584;13.460;2024-03-08T08:31:43;17.98;;;8.35;;
83306;SDS011;73223;48.584;13.460;2024-03-08T08:34:11;18.37;;;7.30;;
83306;SDS011;73223;48.584;13.460;2024-03-08T08:36:37;17.10;;;7.68;;
83306;SDS011;73223;48.584;13.460;2024-03-08T08:39:03;16.02;;;6.72;;
83306;SDS011;73223;48.584;13.460;2024-03-08T08:41:30;15.25;;;6.75;;
83306;SDS011;73223;48.584;13.460;2024-03-08T08:43:55;13.23;;;6.87;;
83306;SDS011;73223;48.584;13.460;2024-03-08T08:46:20;13.30;;;6.17;;
83306;SDS011;73223;48.584;13.460;2024-03-08T08:48:46;15.45;;;7.60;;
83306;SDS011;73223;48.584;13.460;2024-03-08T08:51:12;16.70;;;7.43;;
83306;SDS011;73223;48.584;13.460;2024-03-08T08:53:40;14.43;;;7.15;;
83306;SDS011;73223;48.584;13.460;2024-03-08T08:56:08;13.90;;;6.10;;
83306;SDS011;73223;48.584;13.460;2024-03-08T08:58:33;16.33;;;6.25;;
83306;SDS011;73223;48.584;13.460;2024-03-08T09:00:59;14.15;;;6.63;;
83306;SDS011;73223;48.584;13.460;2024-03-08T09:03:24;14.85;;;6.40;;
83306;SDS011;73223;48.584;13.460;2024-03-08T09:05:52;14.90;;;6.30;;
83306;SDS011;73223;48.584;13.460;2024-03-08T09:08:17;13.98;;;5.90;;
83306;SDS011;73223;48.584;13.460;2024-03-08T09:10:43;14.43;;;5.70;;
83306;SDS011;73223;48.584;13.460;2024-03-08T09:13:08;14.40;;;5.55;;
83306;SDS011;73223;48.584;13.460;2024-03-08T09:15:35;13.27;;;5.80;;
83306;SDS011;73223;48.584;13.460;2024-03-08T09:18:01;14.05;;;5.75;;
83306;SDS011;73223;48.584;13.460;2024-03-08T09:20:26;11.50;;;5.03;;
83306;SDS011;73223;48.584;13.460;2024-03-08T09:22:51;12.18;;;5.50;;
83306;SDS011;73223;48.584;13.460;2024-03-08T09:25:17;11.83;;;5.17;;
83306;SDS011;73223;48.584;13.460;2024-03-08T09:27:42;12.93;;;4.55;;
83306;SDS011;73223;48.584;13.460;2024-03-08T09:30:07;13.97;;;5.13;;
83306;SDS011;73223;48.584;13.460;2024-03-08T09:32:33;13.55;;;5.45;;
83306;SDS011;73223;48.584;13.460;2024-03-08T09:34:58;13.50;;;5.47;;
83306;SDS011;73223;48.584;13.460;2024-03-08T09:37:26;10.77;;;5.03;;
83306;SDS011;73223;48.584;13.460;2024-03-08T09:39:51;11.68;;;5.05;;
83306;SDS011;73223;48.584;13.460;2024-03-08T09:42:16;13.25;;;4.88;;
83306;SDS011;73223;48.584;13.460;2024-03-08T09:44:45;11.32;;;4.78;;
83306;SDS011;73223;48.584;13.460;2024-03-08T09:47:12;10.07;;;4.70;;
83306;SDS011;73223;48.584;13.460;2024-03-08T09:49:39;11.48;;;4.72;;
83306;SDS011;73223;48.584;13.460;2024-03-08T09:52:05;11.40;;;4.88;;
83306;SDS011;73223;48.584;13.460;2024-03-08T09:54:32;10.82;;;4.72;;
83306;SDS011;73223;48.584;13.460;2024-03-08T09:56:58;12.18;;;5.20;;
83306;SDS011;73223;48.584;13.460;2024-03-08T09:59:23;12.38;;;4.82;;
83306;SDS011;73223;48.584;13.460;2024-03-08T10:01:48;10.30;;;4.67;;
83306;SDS011;73223;48.584;13.460;2024-03-08T10:04:14;11.05;;;4.65;;
83306;SDS011;73223;48.584;13.460;2024-03-08T10:06:39;12.13;;;4.90;;
83306;SDS011;73223;48.584;13.460;2024-03-08T10:09:05;11.75;;;4.85;;
83306;SDS011;73223;48.584;13.460;2024-03-08T10:11:32;10.15;;;5.35;;
83306;SDS011;73223;48.584;13.460;2024-03-08T10:13:58;11.23;;;4.32;;
83306;SDS011;73223;48.584;13.460;2024-03-08T10:16:25;11.57;;;4.53;;
83306;SDS011;73223;48.584;13.460;2024-03-08T10:21:18;11.73;;;5.50;;
83306;SDS011;73223;48.584;13.460;2024-03-08T10:23:44;9.70;;;4.28;;
83306;SDS011;73223;48.584;13.460;2024-03-08T10:26:13;10.35;;;5.00;;
83306;SDS011;73223;48.584;13.460;2024-03-08T10:28:40;11.63;;;4.78;;
83306;SDS011;73223;48.584;13.460;2024-03-08T10:31:06;10.27;;;4.70;;
83306;SDS011;73223;48.584;13.460;2024-03-08T10:33:32;9.65;;;4.10;;
83306;SDS011;73223;48.584;13.460;2024-03-08T10:35:58;8.05;;;4.10;;
83306;SDS011;73223;48.584;13.460;2024-03-08T10:38:24;9.35;;;4.13;;
83306;SDS011;73223;48.584;13.460;2024-03-08T10:40:51;11.07;;;4.60;;
83306;SDS011;73223;48.584;13.460;2024-03-08T10:43:22;9.18;;;4.82;;
83306;SDS011;73223;48.584;13.460;2024-03-08T10:46:00;9.18;;;3.90;;
83306;SDS011;73223;48.584;13.460;2024-03-08T10:48:43;7.65;;;3.63;;
83306;SDS011;73223;48.584;13.460;2024-03-08T10:51:11;12.65;;;4.28;;
83306;SDS011;73223;48.584;13.460;2024-03-08T10:53:36;7.75;;;3.38;;
83306;SDS011;73223;48.584;13.460;2024-03-08T10:56:06;9.20;;;4.07;;
83306;SDS011;73223;48.584;13.460;2024-03-08T10:58:32;8.45;;;3.92;;
83306;SDS011;73223;48.584;13.460;2024-03-08T11:01:00;10.68;;;4.00;;
83306;SDS011;73223;48.584;13.460;2024-03-08T11:06:13;10.32;;;4.50;;
83306;SDS011;73223;48.584;13.460;2024-03-08T11:08:40;10.68;;;4.72;;
83306;SDS011;73223;48.584;13.460;2024-03-08T11:11:05;10.82;;;4.63;;
83306;SDS011;73223;48.584;13.460;2024-03-08T11:13:37;10.77;;;5.63;;
83306;SDS011;73223;48.584;13.460;2024-03-08T11:16:09;11.35;;;5.68;;
83306;SDS011;73223;48.584;13.460;2024-03-08T11:18:36;9.55;;;4.72;;
83306;SDS011;73223;48.584;13.460;2024-03-08T11:21:05;9.63;;;4.35;;
83306;SDS011;73223;48.584;13.460;2024-03-08T11:23:37;10.55;;;5.03;;
83306;SDS011;73223;48.584;13.460;2024-03-08T11:26:03;10.82;;;5.00;;
83306;SDS011;73223;48.584;13.460;2024-03-08T11:28:32;9.13;;;4.13;;
83306;SDS011;73223;48.584;13.460;2024-03-08T11:33:29;9.13;;;4.30;;
83306;SDS011;73223;48.584;13.460;2024-03-08T11:38:39;10.10;;;4.35;;
83306;SDS011;73223;48.584;13.460;2024-03-08T11:41:05;9.48;;;3.75;;
83306;SDS011;73223;48.584;13.460;2024-03-08T11:43:31;9.55;;;4.10;;
83306;SDS011;73223;48.584;13.460;2024-03-08T11:46:08;8.93;;;3.63;;
83306;SDS011;73223;48.584;13.460;2024-03-08T11:48:34;8.77;;;3.70;;
83306;SDS011;73223;48.584;13.460;2024-03-08T11:51:00;9.02;;;3.72;;
83306;SDS011;73223;48.584;13.460;2024-03-08T11:53:27;7.38;;;3.40;;
83306;SDS011;73223;48.584;13.460;2024-03-08T11:55:52;8.05;;;3.65;;
83306;SDS011;73223;48.584;13.460;2024-03-08T11:58:17;8.40;;;3.90;;
83306;SDS011;73223;48.584;13.460;2024-03-08T12:00:43;8.77;;;4.20;;
83306;SDS011;73223;48.584;13.460;2024-03-08T12:03:11;10.52;;;4.38;;
83306;SDS011;73223;48.584;13.460;2024-03-08T12:05:37;8.20;;;3.92;;
83306;SDS011;73223;48.584;13.460;2024-03-08T12:08:03;10.57;;;4.25;;
83306;SDS011;73223;48.584;13.460;2024-03-08T12:10:32;9.70;;;4.40;;
83306;SDS011;73223;48.584;13.460;2024-03-08T12:12:58;9.07;;;4.18;;
83306;SDS011;73223;48.584;13.460;2024-03-08T12:15:28;8.38;;;3.83;;
83306;SDS011;73223;48.584;13.460;2024-03-08T12:17:54;9.00;;;3.65;;
83306;SDS011;73223;48.584;13.460;2024-03-08T12:20:22;10.68;;;4.38;;
83306;SDS011;73223;48.584;13.460;2024-03-08T12:22:52;8.43;;;3.83;;
83306;SDS011;73223;48.584;13.460;2024-03-08T12:25:19;8.38;;;3.90;;
83306;SDS011;73223;48.584;13.460;2024-03-08T12:27:45;7.68;;;3.65;;
83306;SDS011;73223;48.584;13.460;2024-03-08T12:35:24;10.43;;;4.22;;
83306;SDS011;73223;48.584;13.460;2024-03-08T12:37:54;7.13;;;3.33;;
83306;SDS011;73223;48.584;13.460;2024-03-08T12:40:26;8.40;;;3.75;;
83306;SDS011;73223;48.584;13.460;2024-03-08T12:42:53;9.18;;;3.58;;
83306;SDS011;73223;48.584;13.460;2024-03-08T12:45:19;8.00;;;3.20;;
83306;SDS011;73223;48.584;13.460;2024-03-08T12:47:46;7.82;;;3.47;;
83306;SDS011;73223;48.584;13.460;2024-03-08T12:50:12;8.65;;;4.07;;
83306;SDS011;73223;48.584;13.460;2024-03-08T12:52:38;8.80;;;3.42;;
83306;SDS011;73223;48.584;13.460;2024-03-08T12:55:03;8.57;;;3.40;;
83306;SDS011;73223;48.584;13.460;2024-03-08T12:57:31;7.35;;;3.42;;
83306;SDS011;73223;48.584;13.460;2024-03-08T12:59:58;8.18;;;3.88;;
83306;SDS011;73223;48.584;13.460;2024-03-08T13:02:24;8.63;;;4.00;;
83306;SDS011;73223;48.584;13.460;2024-03-08T13:04:49;8.75;;;3.60;;
83306;SDS011;73223;48.584;13.460;2024-03-08T13:07:22;8.90;;;3.88;;
83306;SDS011;73223;48.584;13.460;2024-03-08T13:12:14;8.50;;;3.65;;
83306;SDS011;73223;48.584;13.460;2024-03-08T13:14:40;8.98;;;3.97;;
83306;SDS011;73223;48.584;13.460;2024-03-08T13:17:06;7.45;;;3.17;;
83306;SDS011;73223;48.584;13.460;2024-03-08T13:19:35;9.55;;;4.00;;
83306;SDS011;73223;48.584;13.460;2024-03-08T13:22:01;8.93;;;3.92;;
83306;SDS011;73223;48.584;13.460;2024-03-08T13:24:29;8.63;;;3.72;;
83306;SDS011;73223;48.584;13.460;2024-03-08T13:26:54;8.70;;;3.80;;
83306;SDS011;73223;48.584;13.460;2024-03-08T13:29:20;8.65;;;3.72;;
83306;SDS011;73223;48.584;13.460;2024-03-08T13:31:46;7.40;;;3.15;;
83306;SDS011;73223;48.584;13.460;2024-03-08T13:34:14;11.23;;;7.00;;
83306;SDS011;73223;48.584;13.460;2024-03-08T13:36:40;8.00;;;3.53;;
83306;SDS011;73223;48.584;13.460;2024-03-08T13:39:08;8.20;;;3.55;;
83306;SDS011;73223;48.584;13.460;2024-03-08T13:41:40;10.10;;;4.13;;
83306;SDS011;73223;48.584;13.460;2024-03-08T13:44:06;8.32;;;3.35;;
83306;SDS011;73223;48.584;13.460;2024-03-08T13:46:32;7.00;;;3.20;;
83306;SDS011;73223;48.584;13.460;2024-03-08T13:49:02;8.25;;;3.47;;
83306;SDS011;73223;48.584;13.460;2024-03-08T13:51:31;7.60;;;3.45;;
83306;SDS011;73223;48.584;13.460;2024-03-08T13:53:57;7.47;;;2.90;;
83306;SDS011;73223;48.584;13.460;2024-03-08T13:56:23;7.32;;;3.35;;
83306;SDS011;73223;48.584;13.460;2024-03-08T13:58:48;11.83;;;7.10;;
83306;SDS011;73223;48.584;13.460;2024-03-08T14:01:13;9.63;;;4.37;;
83306;SDS011;73223;48.584;13.460;2024-03-08T14:03:38;9.23;;;4.27;;
83306;SDS011;73223;48.584;13.460;2024-03-08T14:06:06;9.88;;;3.30;;
83306;SDS011;73223;48.584;13.460;2024-03-08T14:08:32;9.85;;;2.90;;
83306;SDS011;73223;48.584;13.460;2024-03-08T14:10:58;6.80;;;2.90;;
83306;SDS011;73223;48.584;13.460;2024-03-08T14:13:23;6.80;;;2.80;;
83306;SDS011;73223;48.584;13.460;2024-03-08T14:15:50;8.20;;;3.83;;
83306;SDS011;73223;48.584;13.460;2024-03-08T14:18:16;7.47;;;3.63;;
83306;SDS011;73223;48.584;13.460;2024-03-08T14:20:42;7.70;;;3.25;;
83306;SDS011;73223;48.584;13.460;2024-03-08T14:23:07;6.87;;;2.53;;
83306;SDS011;73223;48.584;13.460;2024-03-08T14:25:33;7.75;;;3.30;;
83306;SDS011;73223;48.584;13.460;2024-03-08T14:27:58;7.57;;;3.20;;
83306;SDS011;73223;48.584;13.460;2024-03-08T14:30:27;7.10;;;2.90;;
83306;SDS011;73223;48.584;13.460;2024-03-08T14:33:19;7.47;;;3.17;;
83306;SDS011;73223;48.584;13.460;2024-03-08T14:35:44;6.80;;;2.88;;
83306;SDS011;73223;48.584;13.460;2024-03-08T14:38:12;8.25;;;2.90;;
83306;SDS011;73223;48.584;13.460;2024-03-08T14:40:37;8.52;;;3.10;;
83306;SDS011;73223;48.584;13.460;2024-03-08T14:43:03;9.35;;;3.20;;
83306;SDS011;73223;48.584;13.460;2024-03-08T14:45:29;7.90;;;3.85;;
83306;SDS011;73223;48.584;13.460;2024-03-08T14:47:55;8.43;;;4.05;;